Time;durP1;ratioP1;P1;durP2;ratioP2;P2;SDS_P1;SDS_P2;PMS_P1;PMS_P2;Temp;Humidity;BMP_temperature;BMP_pressure;BME280_temperature;BME280_humidity;BME280_pressure;Samples;Min_cycle;Max_cycle;Signal;HPM_P1;HPM_P2
2023/08/29 00:05:26;;;;;;;3.75;1.70;;;;;;;13.45;100.00;97848.91;15284796;19;20283;-77
2023/08/29 00:10:57;;;;;;;2.30;1.67;;;;;;;13.47;100.00;97836.00;15288848;19;20010;-79
2023/08/29 00:16:22;;;;;;;2.40;2.20;;;;;;;13.47;100.00;97813.53;15284179;19;20086;-79
2023/08/29 00:21:51;;;;;;;3.38;2.50;;;;;;;13.50;100.00;97778.78;15289557;19;20018;-78
2023/08/29 00:27:16;;;;;;;2.70;2.50;;;;;;;13.60;100.00;97788.44;15286352;19;20014;-80
2023/08/29 00:32:41;;;;;;;3.55;2.40;;;;;;;13.63;100.00;97801.59;15290878;19;20015;-79
2023/08/29 00:38:09;;;;;;;3.05;1.40;;;;;;;13.58;100.00;97841.94;15297160;19;20346;-79
2023/08/29 00:43:36;;;;;;;1.98;1.40;;;;;;;13.56;100.00;97842.97;15295778;19;20010;-80
2023/08/29 00:49:01;;;;;;;1.65;1.52;;;;;;;13.54;100.00;97826.09;15292658;19;20039;-79
2023/08/29 00:54:36;;;;;;;3.05;1.42;;;;;;;13.53;100.00;97818.16;15288586;19;20039;-79
2023/08/29 01:00:01;;;;;;;2.13;1.60;;;;;;;13.53;100.00;97824.41;15299079;19;20006;-80
2023/08/29 01:05:28;;;;;;;1.60;1.40;;;;;;;13.52;100.00;97832.72;15296658;19;20011;-78
2023/08/29 01:11:02;;;;;;;2.45;1.40;;;;;;;13.53;100.00;97851.47;15318313;19;20026;-79
2023/08/29 01:16:36;;;;;;;2.10;1.50;;;;;;;13.53;100.00;97846.06;15279760;19;20018;-78
2023/08/29 01:22:14;;;;;;;1.90;1.80;;;;;;;13.52;100.00;97836.25;15286465;19;20482;-77
2023/08/29 01:27:43;;;;;;;3.08;2.03;;;;;;;13.53;100.00;97832.53;15306033;19;20014;-79
2023/08/29 01:33:09;;;;;;;1.95;1.40;;;;;;;13.51;100.00;97826.47;15313228;19;20484;-79
2023/08/29 01:38:34;;;;;;;3.15;1.88;;;;;;;13.46;100.00;97844.31;15315668;19;20006;-83
2023/08/29 01:44:03;;;;;;;3.42;1.70;;;;;;;13.41;100.00;97853.03;15314838;19;20021;-82
2023/08/29 01:49:29;;;;;;;1.77;1.60;;;;;;;13.37;100.00;97846.28;15319687;19;20049;-81
2023/08/29 01:55:00;;;;;;;2.17;1.48;;;;;;;13.36;100.00;97841.91;15314894;19;20090;-81
2023/08/29 02:00:28;;;;;;;1.90;1.30;;;;;;;13.36;100.00;97853.56;15336367;19;20023;-82
2023/08/29 02:05:54;;;;;;;2.45;1.85;;;;;;;13.36;100.00;97844.59;15324609;19;20010;-80
2023/08/29 02:11:19;;;;;;;3.13;1.60;;;;;;;13.37;100.00;97843.56;15315874;19;20014;-80
2023/08/29 02:16:47;;;;;;;2.45;2.00;;;;;;;13.38;100.00;97864.19;15307885;19;20014;-81
2023/08/29 02:22:12;;;;;;;2.65;1.88;;;;;;;13.38;100.00;97834.44;15311933;19;20030;-80
2023/08/29 02:27:36;;;;;;;1.80;1.70;;;;;;;13.38;100.00;97848.81;15304224;19;20397;-82
2023/08/29 02:33:03;;;;;;;2.83;1.80;;;;;;;13.32;100.00;97854.16;15293526;19;20014;-82
2023/08/29 02:38:31;;;;;;;2.47;1.80;;;;;;;13.29;100.00;97865.34;15296203;19;20021;-81
2023/08/29 02:44:03;;;;;;;2.13;1.90;;;;;;;13.27;100.00;97865.56;15294244;19;20018;-80
2023/08/29 02:49:31;;;;;;;2.90;1.90;;;;;;;13.24;100.00;97863.22;15295216;19;20024;-80
2023/08/29 02:55:03;;;;;;;4.82;2.00;;;;;;;13.21;100.00;97860.91;15297863;19;20062;-79
2023/08/29 03:00:29;;;;;;;3.25;2.30;;;;;;;13.19;100.00;97860.25;15299403;19;20047;-80
2023/08/29 03:06:05;;;;;;;3.58;2.30;;;;;;;13.17;100.00;97841.53;15301973;19;20022;-82
2023/08/29 03:11:29;;;;;;;2.97;2.10;;;;;;;13.15;100.00;97843.56;15304487;19;20021;-81
2023/08/29 03:16:54;;;;;;;2.40;2.10;;;;;;;13.12;100.00;97835.84;15295681;19;20088;-78
2023/08/29 03:22:21;;;;;;;3.15;2.50;;;;;;;13.06;100.00;97840.16;15298798;19;20391;-79
2023/08/29 03:27:46;;;;;;;5.68;2.80;;;;;;;13.06;100.00;97863.66;15300897;19;20027;-78
2023/08/29 03:33:11;;;;;;;3.78;2.50;;;;;;;13.02;100.00;97863.22;15301617;19;20019;-79
2023/08/29 03:38:39;;;;;;;2.80;2.60;;;;;;;13.01;100.00;97868.78;15307289;19;20026;-79
2023/08/29 03:44:03;;;;;;;3.42;2.70;;;;;;;12.99;100.00;97876.28;15308802;19;20035;-81
2023/08/29 03:49:28;;;;;;;4.50;3.33;;;;;;;12.97;100.00;97883.75;15336903;19;20040;-80
2023/08/29 03:54:56;;;;;;;6.55;3.40;;;;;;;12.95;100.00;97881.22;15321130;19;20015;-81
2023/08/29 04:00:23;;;;;;;3.88;3.58;;;;;;;12.95;100.00;97875.81;15316002;19;20018;-83
2023/08/29 04:05:49;;;;;;;5.30;3.88;;;;;;;12.94;100.00;97885.78;15304905;19;20026;-81
2023/08/29 04:11:16;;;;;;;4.40;4.00;;;;;;;12.93;100.00;97894.94;15308235;19;20414;-79
2023/08/29 04:16:44;;;;;;;5.30;3.80;;;;;;;12.92;100.00;97908.66;15328215;19;20007;-80
2023/08/29 04:22:01;;;;;;;4.90;3.90;;;;;;;12.92;100.00;97920.28;15343905;19;20007;-81
2023/08/29 04:27:29;;;;;;;4.65;4.25;;;;;;;12.91;100.00;97918.59;15335074;19;20029;-81
2023/08/29 04:32:59;;;;;;;4.78;4.38;;;;;;;12.90;100.00;97938.56;15304652;19;20030;-81
2023/08/29 04:38:25;;;;;;;5.50;4.18;;;;;;;12.92;100.00;97941.09;15302013;19;20446;-80
2023/08/29 04:43:53;;;;;;;7.18;4.30;;;;;;;12.92;100.00;97941.09;15302339;19;20011;-80
2023/08/29 04:49:18;;;;;;;5.63;4.78;;;;;;;12.91;100.00;97942.09;15296239;19;20043;-80
2023/08/29 04:54:49;;;;;;;7.00;6.00;;;;;;;12.91;100.00;97948.34;15301809;19;20018;-80
2023/08/29 05:00:18;;;;;;;8.65;5.70;;;;;;;12.91;100.00;97951.03;15309935;19;20022;-81
2023/08/29 05:05:44;;;;;;;8.15;5.97;;;;;;;12.91;100.00;97955.63;15300349;19;20031;-79
2023/08/29 05:11:09;;;;;;;7.82;7.00;;;;;;;12.89;100.00;97950.38;15288582;19;20007;-79
2023/08/29 05:16:37;;;;;;;9.45;6.90;;;;;;;12.87;100.00;97957.88;15282672;19;20576;-80
2023/08/29 05:22:03;;;;;;;6.00;5.40;;;;;;;12.83;100.00;97953.00;15286419;19;20011;-79
2023/08/29 05:27:28;;;;;;;6.50;5.45;;;;;;;12.82;100.00;97949.47;15284044;19;20019;-79
2023/08/29 05:32:56;;;;;;;5.50;5.00;;;;;;;12.81;100.00;97952.38;15291442;19;20029;-78
2023/08/29 05:38:25;;;;;;;6.38;5.60;;;;;;;12.78;100.00;97956.28;15306294;19;20011;-80
2023/08/29 05:43:50;;;;;;;6.38;5.07;;;;;;;12.78;100.00;97964.38;15305608;19;20031;-79
2023/08/29 05:49:20;;;;;;;5.72;5.07;;;;;;;12.80;100.00;97973.16;15300451;19;20022;-81
2023/08/29 05:54:46;;;;;;;6.00;5.35;;;;;;;12.84;100.00;97971.75;15294594;19;20014;-80
2023/08/29 06:00:13;;;;;;;5.20;4.70;;;;;;;12.85;100.00;97986.97;15313835;19;20029;-79
2023/08/29 06:05:41;;;;;;;6.47;5.88;;;;;;;12.89;100.00;97980.13;15308171;19;20018;-82
2023/08/29 06:11:06;;;;;;;4.57;4.10;;;;;;;12.86;100.00;97983.22;15304786;19;20417;-80
2023/08/29 06:16:32;;;;;;;4.90;4.50;;;;;;;12.88;100.00;97989.25;15316738;19;21231;-80
2023/08/29 06:22:00;;;;;;;5.70;5.10;;;;;;;12.92;100.00;97989.75;15323002;19;20014;-80
2023/08/29 06:27:26;;;;;;;6.50;5.30;;;;;;;12.94;100.00;97999.34;15313654;19;20026;-79
2023/08/29 06:32:50;;;;;;;6.22;4.82;;;;;;;12.96;100.00;97999.16;15315865;19;20006;-79
2023/08/29 06:38:18;;;;;;;5.53;5.00;;;;;;;12.99;100.00;98011.47;15301455;19;20025;-52
2023/08/29 06:43:46;;;;;;;4.72;4.32;;;;;;;12.99;100.00;98006.91;15269389;19;20018;-56
2023/08/29 06:49:12;;;;;;;4.75;4.18;;;;;;;13.01;100.00;98010.25;15274521;19;20435;-52
2023/08/29 06:54:39;;;;;;;4.32;3.92;;;;;;;13.04;100.00;98026.13;15274749;19;20014;-56
2023/08/29 07:00:05;;;;;;;3.97;3.40;;;;;;;13.06;100.00;98029.44;15276732;19;20015;-54
2023/08/29 07:05:30;;;;;;;3.40;3.10;;;;;;;13.05;100.00;98033.16;15273329;19;20073;-56
2023/08/29 07:10:57;;;;;;;3.33;3.03;;;;;;;13.05;100.00;98040.47;15274736;19;20038;-57
2023/08/29 07:16:22;;;;;;;4.30;3.55;;;;;;;13.06;100.00;98039.44;15266797;19;20086;-56
2023/08/29 07:21:47;;;;;;;3.65;3.35;;;;;;;13.07;100.00;98035.72;15269672;19;20029;-55
2023/08/29 07:27:15;;;;;;;5.13;3.33;;;;;;;13.10;100.00;98035.34;15275278;19;20078;-56
2023/08/29 07:32:39;;;;;;;3.72;3.20;;;;;;;13.13;100.00;98032.25;15273362;19;20368;-52
2023/08/29 07:38:04;;;;;;;2.90;2.70;;;;;;;13.15;100.00;98029.38;15274126;19;20021;-56
2023/08/29 07:43:31;;;;;;;3.40;3.10;;;;;;;13.19;100.00;98038.75;15269516;19;20458;-53
2023/08/29 07:48:56;;;;;;;4.32;3.92;;;;;;;13.16;100.00;98040.00;15267347;19;20489;-54
2023/08/29 07:54:21;;;;;;;4.38;3.88;;;;;;;13.14;100.00;98058.25;15266984;19;20367;-58
2023/08/29 07:59:48;;;;;;;3.70;3.40;;;;;;;13.15;100.00;98054.53;15273136;19;20010;-56
2023/08/29 08:05:18;;;;;;;3.78;3.42;;;;;;;13.16;100.00;98055.41;15269483;19;20049;-58
2023/08/29 08:10:43;;;;;;;3.13;2.83;;;;;;;13.17;100.00;98057.06;15272707;19;20428;-59
2023/08/29 08:16:10;;;;;;;3.65;3.00;;;;;;;13.26;100.00;98066.75;15269979;19;20539;-58
2023/08/29 08:21:35;;;;;;;5.70;3.10;;;;;;;13.34;100.00;98058.53;15266166;19;20643;-59
2023/08/29 08:26:59;;;;;;;2.70;2.50;;;;;;;13.35;100.00;98054.81;15269672;19;20078;-59
2023/08/29 08:32:27;;;;;;;3.03;2.72;;;;;;;13.40;100.00;98056.97;15269962;19;20022;-58
2023/08/29 08:37:52;;;;;;;2.17;1.98;;;;;;;13.38;100.00;98034.66;15269659;19;20014;-58
2023/08/29 08:43:18;;;;;;;2.50;2.17;;;;;;;13.45;100.00;98021.22;15267366;19;20022;-56
2023/08/29 08:48:45;;;;;;;2.78;2.50;;;;;;;13.49;100.00;98022.53;15268915;19;20014;-57
2023/08/29 08:54:10;;;;;;;3.17;2.88;;;;;;;13.54;100.00;98028.19;15261185;19;20494;-57
2023/08/29 08:59:34;;;;;;;4.22;3.40;;;;;;;13.57;100.00;98022.41;15268335;19;20066;-58
2023/08/29 09:05:02;;;;;;;3.75;3.22;;;;;;;13.64;100.00;98014.38;15267714;19;20010;-57
2023/08/29 09:10:28;;;;;;;3.03;2.60;;;;;;;13.69;100.00;98011.94;15268512;19;20014;-55
2023/08/29 09:15:55;;;;;;;3.17;2.70;;;;;;;13.79;100.00;98000.78;15266251;19;20082;-57
2023/08/29 09:21:23;;;;;;;3.47;2.20;;;;;;;13.87;100.00;98000.69;15268926;19;20010;-54
2023/08/29 09:26:50;;;;;;;2.83;1.48;;;;;;;13.96;100.00;98021.19;15259538;19;20358;-57
2023/08/29 09:32:16;;;;;;;1.80;1.13;;;;;;;14.11;100.00;97985.91;15267392;19;20029;-58
2023/08/29 09:37:50;;;;;;;1.58;0.95;;;;;;;14.22;100.00;97970.13;15268863;19;20085;-58
2023/08/29 09:43:17;;;;;;;2.17;1.05;;;;;;;14.38;100.00;97961.75;15266650;19;20479;-56
2023/08/29 09:48:42;;;;;;;1.80;1.00;;;;;;;14.41;100.00;97944.22;15276511;19;20364;-57
2023/08/29 09:54:13;;;;;;;1.13;0.85;;;;;;;14.54;100.00;97960.59;15277082;19;20017;-57
2023/08/29 09:59:41;;;;;;;1.45;0.90;;;;;;;14.59;100.00;97924.75;15278425;19;20071;-57
2023/08/29 10:05:09;;;;;;;1.20;0.80;;;;;;;14.46;100.00;97874.84;15277953;19;20745;-58
2023/08/29 10:10:37;;;;;;;1.33;0.73;;;;;;;14.58;100.00;97844.47;15282062;19;20037;-56
2023/08/29 10:16:01;;;;;;;1.60;0.88;;;;;;;14.53;100.00;97863.19;15277699;19;20014;-56
2023/08/29 10:21:27;;;;;;;1.15;0.85;;;;;;;14.57;100.00;97840.09;15281069;19;20014;-55
2023/08/29 10:26:56;;;;;;;1.23;0.90;;;;;;;14.64;100.00;97854.53;15275269;19;20423;-57
2023/08/29 10:32:22;;;;;;;1.63;0.90;;;;;;;14.71;100.00;97855.41;15274935;19;20491;-57
2023/08/29 10:37:47;;;;;;;1.15;0.70;;;;;;;14.75;100.00;97832.28;15280082;19;20086;-55
2023/08/29 10:43:25;;;;;;;0.95;0.60;;;;;;;14.76;100.00;97835.81;15277753;19;20014;-55
2023/08/29 10:48:52;;;;;;;1.23;0.63;;;;;;;14.87;100.00;97826.28;15278558;19;20010;-53
2023/08/29 10:54:20;;;;;;;3.00;0.70;;;;;;;14.99;100.00;97830.06;15263262;19;20090;-64
2023/08/29 10:59:47;;;;;;;1.25;0.70;;;;;;;15.04;100.00;97803.16;15268274;19;20426;-63
2023/08/29 11:05:21;;;;;;;0.85;0.70;;;;;;;15.14;100.00;97781.06;15268597;19;20416;-63
2023/08/29 11:11:07;;;;;;;1.38;0.70;;;;;;;15.23;100.00;97776.25;15274125;19;20255;-63
2023/08/29 11:16:35;;;;;;;0.70;0.57;;;;;;;15.42;100.00;97777.28;15274537;19;20020;-62
2023/08/29 11:22:01;;;;;;;1.83;0.60;;;;;;;15.49;100.00;97767.28;15278020;19;20018;-63
2023/08/29 11:27:28;;;;;;;0.32;0.30;;;;;;;15.53;100.00;97751.41;15278371;19;20026;-61
2023/08/29 11:32:56;;;;;;;1.20;0.60;;;;;;;15.70;100.00;97752.63;15269605;19;20033;-61
2023/08/29 11:38:21;;;;;;;1.58;0.50;;;;;;;15.80;100.00;97738.63;15270923;19;20090;-62
2023/08/29 11:43:47;;;;;;;0.63;0.40;;;;;;;15.92;100.00;97733.44;15274381;19;20014;-62
2023/08/29 11:49:34;;;;;;;0.82;0.40;;;;;;;15.98;100.00;97720.88;15275904;19;20639;-63
2023/08/29 11:55:07;;;;;;;0.52;0.40;;;;;;;16.05;100.00;97704.56;15272295;19;20031;-62
2023/08/29 12:00:33;;;;;;;0.93;0.35;;;;;;;16.21;100.00;97704.06;15274348;19;20025;-60
2023/08/29 12:06:05;;;;;;;1.10;0.32;;;;;;;16.31;100.00;97693.56;15266123;19;20022;-64
2023/08/29 12:11:43;;;;;;;1.05;0.50;;;;;;;16.47;100.00;97697.66;15263010;19;20017;-61
2023/08/29 12:17:09;;;;;;;1.77;0.38;;;;;;;16.44;100.00;97708.13;15269988;19;20724;-62
2023/08/29 12:22:38;;;;;;;1.00;0.30;;;;;;;16.47;100.00;97691.41;15272832;19;20025;-61
2023/08/29 12:28:03;;;;;;;0.88;0.40;;;;;;;16.64;100.00;97705.31;15272148;19;20017;-61
2023/08/29 12:33:28;;;;;;;0.93;0.47;;;;;;;16.69;100.00;97700.06;15271734;19;20053;-64
2023/08/29 12:38:56;;;;;;;0.30;0.30;;;;;;;16.75;100.00;97706.53;15265485;19;20015;-60
2023/08/29 12:44:22;;;;;;;0.63;0.40;;;;;;;16.88;100.00;97703.69;15263570;19;20031;-59
2023/08/29 12:49:46;;;;;;;1.85;0.30;;;;;;;17.05;100.00;97708.63;15270278;19;20078;-56
2023/08/29 12:55:20;;;;;;;0.35;0.22;;;;;;;17.02;100.00;97698.19;15269563;19;20081;-63
2023/08/29 13:00:45;;;;;;;0.75;0.30;;;;;;;17.17;100.00;97698.72;15271057;19;20466;-61
2023/08/29 13:06:09;;;;;;;0.40;0.30;;;;;;;17.13;100.00;97694.75;15267472;19;20007;-60
2023/08/29 13:11:36;;;;;;;0.28;0.20;;;;;;;16.91;100.00;97664.34;15263643;19;20020;-63
2023/08/29 13:17:04;;;;;;;0.38;0.30;;;;;;;17.06;100.00;97674.94;15261410;19;20017;-62
2023/08/29 13:22:32;;;;;;;1.23;0.30;;;;;;;16.93;100.00;97668.50;15265551;19;20366;-62
2023/08/29 13:27:59;;;;;;;2.05;0.30;;;;;;;17.05;100.00;97676.00;15266885;19;20499;-63
2023/08/29 13:33:25;;;;;;;0.73;0.30;;;;;;;17.08;100.00;97665.50;15266755;19;20415;-59
2023/08/29 13:38:50;;;;;;;0.85;0.30;;;;;;;17.32;100.00;97662.16;15267002;19;20022;-63
2023/08/29 13:44:18;;;;;;;0.50;0.20;;;;;;;17.28;100.00;97663.66;15261092;19;20010;-60
2023/08/29 13:49:42;;;;;;;0.22;0.22;;;;;;;17.57;100.00;97662.13;15263456;19;20035;-59
2023/08/29 13:55:07;;;;;;;0.45;0.25;;;;;;;17.52;100.00;97659.25;15264474;19;20414;-61
2023/08/29 14:00:35;;;;;;;0.88;0.30;;;;;;;17.71;100.00;97654.63;15267245;19;20031;-63
2023/08/29 14:06:01;;;;;;;0.30;0.30;;;;;;;17.75;100.00;97649.56;15265560;19;20467;-61
2023/08/29 14:11:26;;;;;;;0.57;0.22;;;;;;;17.58;100.00;97654.78;15266261;19;20046;-59
2023/08/29 14:16:53;;;;;;;0.40;0.20;;;;;;;17.64;100.00;97662.03;15258268;19;20018;-61
2023/08/29 14:22:18;;;;;;;0.73;0.30;;;;;;;17.40;100.00;97648.25;15262538;19;20018;-59
2023/08/29 14:27:43;;;;;;;0.30;0.30;;;;;;;17.31;100.00;97644.16;15266440;19;20027;-62
2023/08/29 14:33:10;;;;;;;0.77;0.32;;;;;;;17.38;100.00;97642.19;15265971;19;20011;-55
2023/08/29 14:38:35;;;;;;;0.55;0.30;;;;;;;17.59;100.00;97634.63;15275570;19;20018;-60
2023/08/29 14:43:59;;;;;;;0.25;0.20;;;;;;;17.54;100.00;97638.91;15277230;19;20024;-58
2023/08/29 14:49:26;;;;;;;0.50;0.40;;;;;;;17.49;100.00;97649.63;15271587;19;20050;-61
2023/08/29 14:54:52;;;;;;;0.20;0.20;;;;;;;17.52;100.00;97642.91;15270604;19;20019;-61
2023/08/29 15:00:18;;;;;;;0.63;0.40;;;;;;;17.64;100.00;97642.97;15277123;19;20011;-58
2023/08/29 15:05:46;;;;;;;0.50;0.30;;;;;;;17.80;100.00;97642.38;15273889;19;20687;-61
2023/08/29 15:11:11;;;;;;;1.63;0.20;;;;;;;17.96;100.00;97634.63;15276490;19;20014;-55
2023/08/29 15:16:35;;;;;;;0.40;0.30;;;;;;;17.91;100.00;97639.97;15262940;19;20025;-58
2023/08/29 15:22:02;;;;;;;1.05;0.40;;;;;;;17.81;100.00;97644.06;15268600;19;20106;-61
2023/08/29 15:27:27;;;;;;;0.55;0.45;;;;;;;17.78;100.00;97647.22;15272262;19;20010;-60
2023/08/29 15:32:52;;;;;;;1.75;0.35;;;;;;;17.64;100.00;97648.44;15272771;19;20521;-58
2023/08/29 15:38:19;;;;;;;0.43;0.35;;;;;;;17.40;100.00;97638.19;15272316;19;20011;-59
2023/08/29 15:43:45;;;;;;;0.55;0.30;;;;;;;17.17;100.00;97641.56;15271257;19;20026;-63
2023/08/29 15:49:09;;;;;;;0.73;0.30;;;;;;;17.07;100.00;97638.50;15269140;19;20022;-62
2023/08/29 15:54:36;;;;;;;0.60;0.35;;;;;;;16.91;100.00;97637.97;15266292;19;20022;-63
2023/08/29 16:00:09;;;;;;;0.45;0.40;;;;;;;16.90;100.00;97643.63;15272329;19;20490;-60
2023/08/29 16:05:34;;;;;;;0.30;0.30;;;;;;;16.74;100.00;97645.03;15269451;19;20011;-62
2023/08/29 16:11:01;;;;;;;0.90;0.50;;;;;;;16.64;100.00;97651.75;15269847;19;20022;-59
2023/08/29 16:16:26;;;;;;;1.08;0.50;;;;;;;16.48;100.00;97665.88;15268305;19;20087;-63
2023/08/29 16:21:50;;;;;;;0.50;0.40;;;;;;;16.47;100.00;97666.94;15262447;19;20022;-54
2023/08/29 16:27:18;;;;;;;1.65;0.43;;;;;;;16.41;100.00;97670.50;15267377;19;20018;-58
2023/08/29 16:32:43;;;;;;;0.98;0.55;;;;;;;16.40;100.00;97682.47;15275039;19;20010;-61
2023/08/29 16:38:08;;;;;;;1.05;0.50;;;;;;;16.37;100.00;97689.16;15273663;19;20018;-59
2023/08/29 16:43:36;;;;;;;0.60;0.40;;;;;;;16.33;100.00;97696.91;15268662;19;20783;-59
2023/08/29 16:49:01;;;;;;;1.80;0.60;;;;;;;16.31;100.00;97701.72;15269348;19;20032;-58
2023/08/29 16:54:32;;;;;;;0.63;0.50;;;;;;;16.28;100.00;97702.16;15261702;19;20019;-61
2023/08/29 17:00:02;;;;;;;0.80;0.63;;;;;;;16.26;100.00;97700.69;15265766;19;20006;-61
2023/08/29 17:05:28;;;;;;;0.80;0.50;;;;;;;16.24;100.00;97708.22;15267148;19;20074;-61
2023/08/29 17:10:53;;;;;;;0.80;0.40;;;;;;;16.20;100.00;97709.72;15270124;19;20010;-62
2023/08/29 17:16:21;;;;;;;2.05;0.45;;;;;;;16.15;100.00;97708.47;15267353;19;20014;-60
2023/08/29 17:21:47;;;;;;;0.85;0.32;;;;;;;16.10;100.00;97716.47;15267786;19;20014;-61
2023/08/29 17:27:12;;;;;;;0.63;0.30;;;;;;;16.05;100.00;97716.25;15264862;19;20066;-61
2023/08/29 17:32:40;;;;;;;1.35;0.30;;;;;;;15.96;100.00;97721.06;15260677;19;20015;-61
2023/08/29 17:38:04;;;;;;;0.77;0.40;;;;;;;15.91;100.00;97725.47;15268129;19;20078;-61
2023/08/29 17:43:29;;;;;;;0.45;0.35;;;;;;;15.85;100.00;97738.03;15265996;19;20384;-59
2023/08/29 17:48:56;;;;;;;1.45;0.50;;;;;;;15.80;100.00;97735.91;15268293;19;20077;-62
2023/08/29 17:54:27;;;;;;;1.45;0.40;;;;;;;15.76;100.00;97742.00;15261183;19;20536;-62
2023/08/29 17:59:54;;;;;;;0.60;0.40;;;;;;;15.75;100.00;97751.19;15254022;19;20017;-61
2023/08/29 18:05:22;;;;;;;0.60;0.38;;;;;;;15.70;100.00;97749.94;15255843;19;20605;-61
2023/08/29 18:10:48;;;;;;;0.75;0.50;;;;;;;15.62;100.00;97749.34;15271246;19;20493;-56
2023/08/29 18:16:15;;;;;;;0.40;0.40;;;;;;;15.60;100.00;97757.66;15270350;19;20026;-61
2023/08/29 18:21:42;;;;;;;1.67;0.47;;;;;;;15.57;100.00;97752.69;15275902;19;20074;-60
2023/08/29 18:27:08;;;;;;;0.95;0.47;;;;;;;15.54;100.00;97756.63;15278969;19;20673;-61
2023/08/29 18:32:34;;;;;;;1.00;0.50;;;;;;;15.52;100.00;97766.03;15270227;19;20851;-60
2023/08/29 18:38:01;;;;;;;1.55;0.55;;;;;;;15.50;100.00;97759.97;15264189;19;20018;-60
2023/08/29 18:43:27;;;;;;;0.90;0.50;;;;;;;15.50;100.00;97782.53;15275138;19;20021;-61
2023/08/29 18:48:51;;;;;;;0.63;0.50;;;;;;;15.48;100.00;97781.06;15171549;19;2004606;-60
2023/08/29 18:54:18;;;;;;;1.60;0.30;;;;;;;15.46;100.00;97780.47;15273961;19;20019;-61
2023/08/29 18:59:43;;;;;;;2.10;0.57;;;;;;;15.45;100.00;97786.94;15270669;19;20010;-61
2023/08/29 19:05:10;;;;;;;0.30;0.30;;;;;;;15.43;100.00;97794.44;15269607;19;20519;-61
2023/08/29 19:10:38;;;;;;;0.73;0.43;;;;;;;15.39;100.00;97797.56;15270295;19;20042;-61
2023/08/29 19:16:04;;;;;;;0.40;0.30;;;;;;;15.36;100.00;97786.28;15275091;19;20496;-60
2023/08/29 19:21:28;;;;;;;1.10;0.50;;;;;;;15.33;100.00;97792.97;14763217;19;10000147;-59
2023/08/29 19:26:56;;;;;;;1.75;0.50;;;;;;;15.30;100.00;97785.25;15274337;19;20018;-59
2023/08/29 19:32:37;;;;;;;1.67;0.60;;;;;;;15.28;100.00;97787.31;15272485;19;20010;-60
2023/08/29 19:38:03;;;;;;;1.10;0.50;;;;;;;15.25;100.00;97766.03;15266880;19;20074;-61
2023/08/29 19:43:30;;;;;;;1.50;0.60;;;;;;;15.20;100.00;97772.06;15238514;19;20379;-61
2023/08/29 19:48:56;;;;;;;0.45;0.40;;;;;;;15.13;100.00;97776.66;15275032;19;20019;-62
2023/08/29 19:54:27;;;;;;;0.60;0.50;;;;;;;15.08;100.00;97776.44;15274072;19;20078;-61
2023/08/29 19:59:55;;;;;;;1.40;0.40;;;;;;;15.01;100.00;97772.88;15271294;19;20022;-60
2023/08/29 20:05:26;;;;;;;0.57;0.50;;;;;;;14.91;100.00;97776.00;15272543;19;20015;-61
2023/08/29 20:10:51;;;;;;;0.43;0.25;;;;;;;14.85;100.00;97780.34;15270428;19;20475;-62
2023/08/29 20:16:18;;;;;;;1.27;0.50;;;;;;;14.83;100.00;97773.47;15280303;19;20535;-62
2023/08/29 20:21:43;;;;;;;0.45;0.32;;;;;;;14.78;100.00;97771.38;15273395;19;20020;-62
2023/08/29 20:27:07;;;;;;;1.20;0.43;;;;;;;14.75;100.00;97778.06;15276419;19;20025;-62
2023/08/29 20:32:35;;;;;;;1.48;0.50;;;;;;;14.73;100.00;97784.69;15270567;19;20014;-62
2023/08/29 20:38:04;;;;;;;0.40;0.40;;;;;;;14.73;100.00;97776.56;15272862;19;20544;-63
2023/08/29 20:43:29;;;;;;;0.88;0.60;;;;;;;14.69;100.00;97784.28;15266057;19;20014;-63
2023/08/29 20:48:57;;;;;;;2.42;0.45;;;;;;;14.65;100.00;97782.97;15268008;19;20485;-61
2023/08/29 20:54:22;;;;;;;1.80;0.60;;;;;;;14.61;100.00;97784.44;15270741;19;20020;-60
2023/08/29 20:59:46;;;;;;;0.68;0.40;;;;;;;14.56;100.00;97793.19;15269765;19;20014;-62
2023/08/29 21:05:14;;;;;;;0.45;0.40;;;;;;;14.49;100.00;97801.28;15270824;19;20039;-61
2023/08/29 21:10:38;;;;;;;1.55;0.50;;;;;;;14.47;100.00;97797.94;15266325;19;20014;-62
2023/08/29 21:16:04;;;;;;;1.98;0.52;;;;;;;14.45;100.00;97797.28;15266094;19;20014;-61
2023/08/29 21:21:31;;;;;;;1.65;0.50;;;;;;;14.44;100.00;97797.50;15266910;19;20114;-61
2023/08/29 21:26:56;;;;;;;0.45;0.40;;;;;;;14.43;100.00;97803.97;15267347;19;20086;-61
2023/08/29 21:32:20;;;;;;;0.75;0.60;;;;;;;14.40;100.00;97807.91;15269157;19;20014;-60
2023/08/29 21:37:47;;;;;;;1.50;0.40;;;;;;;14.39;100.00;97811.66;15268560;19;20076;-60
2023/08/29 21:43:16;;;;;;;0.73;0.55;;;;;;;14.38;100.00;97809.97;15265888;19;20019;-59
2023/08/29 21:48:41;;;;;;;1.25;0.60;;;;;;;14.34;100.00;97822.25;15279820;19;20022;-61
2023/08/29 21:54:08;;;;;;;2.00;0.70;;;;;;;14.31;100.00;97819.94;15280531;19;20339;-61
2023/08/29 21:59:33;;;;;;;2.78;0.60;;;;;;;14.30;100.00;97819.13;15280218;19;20022;-61
2023/08/29 22:05:00;;;;;;;1.60;0.70;;;;;;;14.26;100.00;97819.72;15278671;19;20028;-61
2023/08/29 22:10:28;;;;;;;0.82;0.70;;;;;;;14.24;100.00;97825.31;15282978;19;20015;-61
2023/08/29 22:15:52;;;;;;;1.38;0.70;;;;;;;14.21;100.00;97817.59;15269807;19;20077;-61
2023/08/29 22:21:17;;;;;;;1.27;0.63;;;;;;;14.18;100.00;97821.53;15269862;19;20013;-59
2023/08/29 22:26:44;;;;;;;1.05;0.70;;;;;;;14.14;100.00;97809.44;15278669;19;20024;-59
2023/08/29 22:32:10;;;;;;;0.90;0.60;;;;;;;14.12;100.00;97808.78;15279495;19;20028;-60
2023/08/29 22:37:34;;;;;;;0.98;0.60;;;;;;;14.11;100.00;97807.13;15282117;19;20014;-60
2023/08/29 22:43:02;;;;;;;1.33;0.50;;;;;;;14.09;100.00;97811.91;15278606;19;20026;-59
2023/08/29 22:48:26;;;;;;;0.95;0.75;;;;;;;14.08;100.00;97812.94;15273842;19;20031;-61
2023/08/29 22:53:52;;;;;;;1.25;0.70;;;;;;;14.03;100.00;97788.34;15272084;19;20022;-61
2023/08/29 22:59:19;;;;;;;1.50;0.80;;;;;;;13.99;100.00;97771.63;15277635;19;20041;-60
2023/08/29 23:04:44;;;;;;;1.95;0.85;;;;;;;13.96;100.00;97771.19;15276457;19;20014;-61
2023/08/29 23:10:08;;;;;;;1.20;0.90;;;;;;;13.94;100.00;97781.38;15280075;19;20014;-60
2023/08/29 23:15:37;;;;;;;1.90;1.00;;;;;;;13.93;100.00;97804.09;15275370;19;20033;-58
2023/08/29 23:21:01;;;;;;;1.60;1.00;;;;;;;13.92;100.00;97802.44;15268225;19;20022;-61
2023/08/29 23:26:26;;;;;;;1.77;1.00;;;;;;;13.91;100.00;97808.88;15269701;19;20073;-61
2023/08/29 23:31:55;;;;;;;2.40;0.90;;;;;;;13.86;100.00;97796.75;15279149;19;20021;-58
2023/08/29 23:37:20;;;;;;;2.05;1.00;;;;;;;13.84;100.00;97798.00;15280386;19;20022;-61
2023/08/29 23:42:45;;;;;;;1.90;0.90;;;;;;;13.78;100.00;97805.03;15276841;19;20467;-61
2023/08/29 23:48:19;;;;;;;1.30;1.08;;;;;;;13.75;100.00;97804.59;15277058;19;20047;-57
2023/08/29 23:53:44;;;;;;;1.52;1.30;;;;;;;13.70;100.00;97805.19;15269863;19;20618;-61
2023/08/29 23:59:08;;;;;;;3.08;1.30;;;;;;;13.65;100.00;97797.63;15270610;19;20082;-61
